createdAt,value
2019-04-21T00:01:49.041Z,5.70
2019-04-21T00:04:30.431Z,5.50
2019-04-21T00:07:08.751Z,5.60
2019-04-21T00:09:39.718Z,5.60
2019-04-21T00:12:07.529Z,5.60
2019-04-21T00:14:30.351Z,5.60
2019-04-21T00:16:57.495Z,5.60
2019-04-21T00:19:34.935Z,5.50
2019-04-21T00:22:14.207Z,5.50
2019-04-21T00:24:46.047Z,5.40
2019-04-21T00:27:20.009Z,5.50
2019-04-21T00:29:51.816Z,5.50
2019-04-21T00:32:20.694Z,5.40
2019-04-21T00:34:34.748Z,5.30
2019-04-21T00:37:15.537Z,5.20
2019-04-21T00:40:02.229Z,5.20
2019-04-21T00:42:27.415Z,5.20
2019-04-21T00:44:51.982Z,5.20
2019-04-21T00:47:30.659Z,5.20
2019-04-21T00:50:00.372Z,5.10
2019-04-21T00:52:46.248Z,5.00
2019-04-21T00:55:33.942Z,5.00
2019-04-21T00:57:53.383Z,4.90
2019-04-21T01:00:18.787Z,4.80
2019-04-21T01:02:53.696Z,4.80
2019-04-21T01:05:16.593Z,4.80
2019-04-21T01:07:42.463Z,4.80
2019-04-21T01:10:09.603Z,4.80
2019-04-21T01:12:48.991Z,4.70
2019-04-21T01:15:27.672Z,4.70
2019-04-21T01:17:52.181Z,4.60
2019-04-21T01:20:13.268Z,4.60
2019-04-21T01:22:29.465Z,4.50
2019-04-21T01:25:08.944Z,4.60
2019-04-21T01:27:49.536Z,4.60
2019-04-21T01:30:22.227Z,4.60
2019-04-21T01:32:53.313Z,4.50
2019-04-21T01:35:21.046Z,4.50
2019-04-21T01:38:06.859Z,4.60
2019-04-21T01:40:29.638Z,4.60
2019-04-21T01:42:50.761Z,4.60
2019-04-21T01:45:24.592Z,4.60
2019-04-21T01:47:52.159Z,4.50
2019-04-21T01:50:23.697Z,4.40
2019-04-21T01:53:02.367Z,4.40
2019-04-21T01:55:45.536Z,4.40
2019-04-21T01:58:11.545Z,4.40
2019-04-21T02:03:40.630Z,4.50
2019-04-21T02:05:59.660Z,4.50
2019-04-21T02:08:21.683Z,4.40
2019-04-21T02:11:00.961Z,4.30
2019-04-21T02:13:23.271Z,4.10
2019-04-21T02:16:02.066Z,4.10
2019-04-21T02:18:33.446Z,4.00
2019-04-21T02:20:45.899Z,4.00
2019-04-21T02:23:34.391Z,4.10
2019-04-21T02:25:57.468Z,4.00
2019-04-21T02:28:36.822Z,4.00
2019-04-21T02:31:18.147Z,3.90
2019-04-21T02:33:45.859Z,3.80
2019-04-21T02:38:53.049Z,3.90
2019-04-21T02:41:09.412Z,4.00
2019-04-21T02:43:44.907Z,4.00
2019-04-21T02:46:19.595Z,3.90
2019-04-21T02:48:43.595Z,3.80
2019-04-21T02:51:23.409Z,3.80
2019-04-21T02:54:03.746Z,3.80
2019-04-21T02:56:18.461Z,3.80
2019-04-21T02:58:52.313Z,3.80
2019-04-21T03:01:24.569Z,3.80
2019-04-21T03:04:04.806Z,3.80
2019-04-21T03:07:09.634Z,3.80
2019-04-21T03:09:26.223Z,3.70
2019-04-21T03:11:56.482Z,3.70
2019-04-21T03:14:29.957Z,3.70
2019-04-21T03:16:40.158Z,3.60
2019-04-21T03:19:33.225Z,3.50
2019-04-21T03:21:57.376Z,3.60
2019-04-21T03:24:18.453Z,3.60
2019-04-21T03:27:01.866Z,3.60
2019-04-21T03:29:28.213Z,3.60
2019-04-21T03:32:14.426Z,3.60
2019-04-21T03:34:51.308Z,3.60
2019-04-21T03:39:31.041Z,3.40
2019-04-21T03:42:14.144Z,3.30
2019-04-21T03:44:43.630Z,3.30
2019-04-21T03:47:02.177Z,3.30
2019-04-21T03:52:08.440Z,3.30
2019-04-21T03:54:33.025Z,3.20
2019-04-21T03:57:11.250Z,3.20
2019-04-21T03:59:25.045Z,3.20
2019-04-21T04:02:31.199Z,3.20
2019-04-21T04:04:44.141Z,3.20
2019-04-21T04:07:33.782Z,3.20
2019-04-21T04:12:32.824Z,3.20
2019-04-21T04:15:22.864Z,3.20
2019-04-21T04:20:07.865Z,3.30
2019-04-21T04:30:12.417Z,3.30
2019-04-21T04:32:36.798Z,3.40
2019-04-21T04:35:14.490Z,3.60
2019-04-21T04:37:36.660Z,3.70
2019-04-21T04:40:21.536Z,3.90
2019-04-21T04:50:29.966Z,4.00
2019-04-21T04:53:12.771Z,3.90
2019-04-21T04:55:26.285Z,3.90
2019-04-21T04:57:59.264Z,4.00
2019-04-21T05:00:34.983Z,4.10
2019-04-21T05:02:56.567Z,4.10
2019-04-21T05:05:27.812Z,4.30
2019-04-21T05:10:38.491Z,4.50
2019-04-21T05:12:58.172Z,4.60
2019-04-21T05:15:42.595Z,4.60
2019-04-21T05:18:03.175Z,4.70
2019-04-21T05:22:55.481Z,4.80
2019-04-21T05:25:19.610Z,4.80
2019-04-21T05:27:48.280Z,4.90
2019-04-21T05:30:36.958Z,5.10
2019-04-21T05:33:07.116Z,5.30
2019-04-21T05:35:47.927Z,5.40
2019-04-21T05:38:22.348Z,5.50
2019-04-21T05:40:51.340Z,5.70
2019-04-21T05:43:28.412Z,5.80
2019-04-21T05:45:58.289Z,6.00
2019-04-21T05:51:00.466Z,6.30
2019-04-21T05:56:03.608Z,6.60
2019-04-21T05:58:33.377Z,6.90
2019-04-21T06:01:30.104Z,7.10
2019-04-21T06:06:28.946Z,7.40
2019-04-21T06:08:47.841Z,7.60
2019-04-21T06:11:28.973Z,7.70
2019-04-21T06:13:55.021Z,7.90
2019-04-21T06:16:28.646Z,8.10
2019-04-21T06:21:38.576Z,12.50
2019-04-21T06:24:13.179Z,15.60
2019-04-21T06:26:50.390Z,18.10
2019-04-21T06:29:09.168Z,19.90
2019-04-21T06:31:57.427Z,21.70
2019-04-21T06:34:00.242Z,23.20
2019-04-21T06:36:42.248Z,24.50
2019-04-21T06:41:39.721Z,24.70
2019-04-21T06:44:11.907Z,24.70
2019-04-21T06:49:24.172Z,25.30
2019-04-21T06:55:02.598Z,25.50
2019-04-21T06:59:55.567Z,26.60
2019-04-21T07:07:35.526Z,27.30
2019-04-21T07:10:11.102Z,26.90
2019-04-21T07:12:33.637Z,26.70
2019-04-21T07:14:59.102Z,26.60
2019-04-21T07:17:35.729Z,27.00
2019-04-21T07:20:06.928Z,27.20
2019-04-21T07:22:38.374Z,27.50
2019-04-21T07:25:08.639Z,27.70
2019-04-21T07:27:42.757Z,28.10
2019-04-21T07:30:28.100Z,28.50
2019-04-21T07:32:40.040Z,28.90
2019-04-21T07:35:09.740Z,29.40
2019-04-21T07:37:46.104Z,29.60
2019-04-21T07:40:05.465Z,29.30
2019-04-21T07:42:39.991Z,29.40
2019-04-21T07:45:06.445Z,29.90
2019-04-21T07:47:53.473Z,30.30
2019-04-21T07:50:27.433Z,30.60
2019-04-21T07:53:21.227Z,31.10
2019-04-21T07:58:17.717Z,31.70
2019-04-21T08:00:51.075Z,31.20
2019-04-21T08:03:23.674Z,31.10
2019-04-21T08:05:52.696Z,30.60
2019-04-21T08:08:15.947Z,30.50
2019-04-21T08:10:47.424Z,30.70
2019-04-21T08:13:28.774Z,31.00
2019-04-21T08:15:50.991Z,31.20
2019-04-21T08:18:21.048Z,32.00
2019-04-21T08:20:53.432Z,31.80
2019-04-21T08:23:29.931Z,31.80
2019-04-21T08:25:58.944Z,31.90
2019-04-21T08:28:28.450Z,32.30
2019-04-21T08:30:55.407Z,32.00
2019-04-21T08:33:33.750Z,31.50
2019-04-21T08:36:11.024Z,32.20
2019-04-21T08:38:28.697Z,30.50
2019-04-21T08:41:05.126Z,30.60
2019-04-21T08:43:37.066Z,30.40
2019-04-21T08:45:58.725Z,30.50
2019-04-21T08:48:29.456Z,31.00
2019-04-21T08:51:14.210Z,31.90
2019-04-21T08:53:33.989Z,32.00
2019-04-21T08:56:10.618Z,30.60
2019-04-21T08:58:57.562Z,31.20
2019-04-21T09:01:47.421Z,31.20
2019-04-21T09:04:17.181Z,31.10
2019-04-21T09:06:54.167Z,31.80
2019-04-21T09:11:46.146Z,31.80
2019-04-21T09:14:13.716Z,31.70
2019-04-21T09:16:41.122Z,31.80
2019-04-21T09:19:20.177Z,31.60
2019-04-21T09:24:16.660Z,31.50
2019-04-21T09:26:46.123Z,32.40
2019-04-21T09:29:07.725Z,32.00
2019-04-21T09:31:33.843Z,32.30
2019-04-21T09:34:02.724Z,31.80
2019-04-21T09:36:38.235Z,32.90
2019-04-21T09:39:08.696Z,33.40
2019-04-21T09:41:34.345Z,32.60
2019-04-21T09:44:01.733Z,32.50
2019-04-21T09:46:34.125Z,31.80
2019-04-21T09:49:05.910Z,31.60
2019-04-21T09:51:32.668Z,32.40
2019-04-21T09:54:08.237Z,32.40
2019-04-21T09:56:43.626Z,32.80
2019-04-21T09:59:11.431Z,33.50
2019-04-21T10:01:50.370Z,33.40
2019-04-21T10:04:05.630Z,33.00
2019-04-21T10:06:34.996Z,32.10
2019-04-21T10:09:07.641Z,32.20
2019-04-21T10:11:37.514Z,32.20
2019-04-21T10:14:07.431Z,32.30
2019-04-21T10:16:47.138Z,31.70
2019-04-21T10:19:15.973Z,30.40
2019-04-21T10:21:44.819Z,28.30
2019-04-21T10:24:13.717Z,26.60
2019-04-21T10:26:43.087Z,25.30
2019-04-21T10:29:16.978Z,24.10
2019-04-21T10:31:42.839Z,23.50
2019-04-21T10:34:11.802Z,23.10
2019-04-21T10:36:40.841Z,23.00
2019-04-21T10:39:09.848Z,23.00
2019-04-21T10:41:39.306Z,23.10
2019-04-21T10:44:09.352Z,23.00
2019-04-21T10:46:38.450Z,22.90
2019-04-21T10:49:08.554Z,23.00
2019-04-21T10:51:37.566Z,23.00
2019-04-21T10:54:06.478Z,22.80
2019-04-21T10:56:40.270Z,22.70
2019-04-21T10:59:05.770Z,22.50
2019-04-21T11:01:34.776Z,22.50
2019-04-21T11:04:07.498Z,22.60
2019-04-21T11:06:36.851Z,22.60
2019-04-21T11:09:10.503Z,22.70
2019-04-21T11:11:39.788Z,22.80
2019-04-21T11:14:08.764Z,22.70
2019-04-21T11:16:37.669Z,22.60
2019-04-21T11:19:07.535Z,22.50
2019-04-21T11:21:36.681Z,22.40
2019-04-21T11:24:06.060Z,22.50
2019-04-21T11:26:35.921Z,22.40
2019-04-21T11:29:05.252Z,22.10
2019-04-21T11:31:34.191Z,21.80
2019-04-21T11:34:03.076Z,21.50
2019-04-21T11:36:33.175Z,21.50
2019-04-21T11:39:29.231Z,21.70
2019-04-21T11:41:51.896Z,21.70
2019-04-21T11:44:24.253Z,21.60
2019-04-21T11:46:52.139Z,21.70
2019-04-21T11:49:22.254Z,22.00
2019-04-21T11:51:51.280Z,22.30
2019-04-21T11:54:24.678Z,22.30
2019-04-21T11:56:54.798Z,22.20
2019-04-21T11:59:23.908Z,21.90
2019-04-21T12:01:53.921Z,21.70
2019-04-21T12:04:23.476Z,21.70
2019-04-21T12:06:54.028Z,21.70
2019-04-21T12:09:23.141Z,21.90
2019-04-21T12:11:53.594Z,21.80
2019-04-21T12:14:23.813Z,21.80
2019-04-21T12:16:53.034Z,21.80
2019-04-21T12:19:22.900Z,22.00
2019-04-21T12:22:02.383Z,22.00
2019-04-21T12:24:22.819Z,22.00
2019-04-21T12:26:51.808Z,22.00
2019-04-21T12:29:20.872Z,21.80
2019-04-21T12:32:07.819Z,21.80
2019-04-21T12:34:36.653Z,21.60
2019-04-21T12:37:06.706Z,21.70
2019-04-21T12:39:36.891Z,21.80
2019-04-21T12:42:06.767Z,21.90
2019-04-21T12:44:37.069Z,21.90
2019-04-21T12:47:06.146Z,21.90
2019-04-21T12:49:35.887Z,21.70
2019-04-21T12:52:05.966Z,21.60
2019-04-21T12:54:35.494Z,21.50
2019-04-21T12:57:05.413Z,21.40
2019-04-21T12:59:35.868Z,21.50
2019-04-21T13:02:04.894Z,21.50
2019-04-21T13:04:33.741Z,21.50
2019-04-21T13:07:03.698Z,21.60
2019-04-21T13:09:34.264Z,21.70
2019-04-21T13:12:03.291Z,21.70
2019-04-21T13:14:32.153Z,21.60
2019-04-21T13:17:01.379Z,21.70
2019-04-21T13:19:31.527Z,21.70
2019-04-21T13:22:01.556Z,21.80
2019-04-21T13:24:31.723Z,21.80
2019-04-21T13:27:03.260Z,21.80
2019-04-21T13:29:32.291Z,21.90
2019-04-21T13:32:04.710Z,21.90
2019-04-21T13:34:31.923Z,21.70
2019-04-21T13:37:01.526Z,21.70
2019-04-21T13:40:01.791Z,21.70
2019-04-21T13:42:21.333Z,21.70
2019-04-21T13:44:44.597Z,21.80
2019-04-21T13:47:14.525Z,21.80
2019-04-21T13:49:43.507Z,22.00
2019-04-21T13:52:13.002Z,22.10
2019-04-21T13:54:43.190Z,22.20
2019-04-21T13:57:12.480Z,22.20
2019-04-21T13:59:42.264Z,22.20
2019-04-21T14:02:11.640Z,22.10
2019-04-21T14:04:43.193Z,21.90
2019-04-21T14:07:12.348Z,21.90
2019-04-21T14:09:50.222Z,21.70
2019-04-21T14:12:11.809Z,21.80
2019-04-21T14:14:41.934Z,21.70
2019-04-21T14:17:11.019Z,21.80
2019-04-21T14:19:39.882Z,21.90
2019-04-21T14:22:11.659Z,22.00
2019-04-21T14:24:39.278Z,22.10
2019-04-21T14:27:08.156Z,22.00
2019-04-21T14:29:37.662Z,21.80
2019-04-21T14:32:06.694Z,21.50
2019-04-21T14:34:35.629Z,21.50
2019-04-21T14:37:04.575Z,21.40
2019-04-21T14:39:35.720Z,21.40
2019-04-21T14:42:04.389Z,21.40
2019-04-21T14:44:33.609Z,21.40
2019-04-21T14:47:07.004Z,21.50
2019-04-21T14:49:55.209Z,21.60
2019-04-21T14:52:25.741Z,21.70
2019-04-21T14:54:59.047Z,21.70
2019-04-21T14:57:29.407Z,21.80
2019-04-21T14:59:58.382Z,21.80
2019-04-21T15:02:27.792Z,21.90
2019-04-21T15:04:57.816Z,22.00
2019-04-21T15:07:27.581Z,22.00
2019-04-21T15:10:04.632Z,22.00
2019-04-21T15:12:27.808Z,22.00
2019-04-21T15:14:58.035Z,22.00
2019-04-21T15:17:29.130Z,22.00
2019-04-21T15:20:04.464Z,21.90
2019-04-21T15:22:30.344Z,21.90
2019-04-21T15:25:00.594Z,21.90
2019-04-21T15:27:30.761Z,21.90
2019-04-21T15:40:28.142Z,21.50
2019-04-21T15:42:46.811Z,21.40
2019-04-21T15:45:16.767Z,21.40
2019-04-21T15:47:46.161Z,21.40
2019-04-21T15:50:19.397Z,21.40
2019-04-21T15:52:47.698Z,21.40
2019-04-21T15:55:21.369Z,21.40
2019-04-21T15:57:58.601Z,21.40
2019-04-21T16:00:46.836Z,21.40
2019-04-21T16:03:16.595Z,21.50
2019-04-21T16:05:46.722Z,21.50
2019-04-21T16:08:16.402Z,21.40
2019-04-21T16:10:52.903Z,21.40
2019-04-21T16:13:16.109Z,21.30
2019-04-21T16:15:46.262Z,21.20
2019-04-21T16:18:16.171Z,21.10
2019-04-21T16:20:45.965Z,21.10
2019-04-21T16:23:15.231Z,21.00
2019-04-21T16:25:44.369Z,21.00
2019-04-21T16:28:15.429Z,20.90
2019-04-21T16:30:44.701Z,20.70
2019-04-21T16:33:14.334Z,20.70
2019-04-21T16:35:44.296Z,20.60
2019-04-21T16:38:13.400Z,20.70
2019-04-21T16:40:51.873Z,20.60
2019-04-21T16:43:14.243Z,20.50
2019-04-21T16:45:44.452Z,20.50
2019-04-21T16:48:15.016Z,20.40
2019-04-21T16:50:44.089Z,20.30
2019-04-21T16:53:14.615Z,20.20
2019-04-21T16:56:39.926Z,20.20
2019-04-21T16:59:10.619Z,20.10
2019-04-21T17:01:40.674Z,20.00
2019-04-21T17:04:10.765Z,20.00
2019-04-21T17:06:40.872Z,19.90
2019-04-21T17:09:10.653Z,19.80
2019-04-21T17:11:43.618Z,19.70
2019-04-21T17:14:27.226Z,19.70
2019-04-21T17:17:04.006Z,19.60
2019-04-21T17:19:21.306Z,19.50
2019-04-21T17:21:43.585Z,19.50
2019-04-21T17:24:12.798Z,19.40
2019-04-21T17:26:44.140Z,19.30
2019-04-21T17:29:12.542Z,19.30
2019-04-21T17:31:41.513Z,19.20
2019-04-21T17:34:16.446Z,19.10
2019-04-21T17:36:41.259Z,19.00
2019-04-21T17:39:11.134Z,18.90
2019-04-21T17:41:54.116Z,18.80
2019-04-21T17:44:11.061Z,18.60
2019-04-21T17:46:47.777Z,18.30
2019-04-21T17:49:10.862Z,18.10
2019-04-21T17:51:53.719Z,17.90
2019-04-21T17:54:27.632Z,17.70
2019-04-21T17:57:10.980Z,17.60
2019-04-21T17:59:50.634Z,17.50
2019-04-21T18:02:10.982Z,17.50
2019-04-21T18:04:42.980Z,17.40
2019-04-21T18:07:27.238Z,17.20
2019-04-21T18:10:00.877Z,17.10
2019-04-21T18:12:25.039Z,17.00
2019-04-21T18:14:53.099Z,16.80
2019-04-21T18:17:12.001Z,16.60
2019-04-21T18:19:43.381Z,16.50
2019-04-21T18:22:32.137Z,16.40
2019-04-21T18:25:05.771Z,16.40
2019-04-21T18:27:29.739Z,16.40
2019-04-21T18:30:02.467Z,16.40
2019-04-21T18:32:35.992Z,16.30
2019-04-21T18:35:14.046Z,16.20
2019-04-21T18:38:08.038Z,16.10
2019-04-21T18:40:33.856Z,16.00
2019-04-21T18:43:37.887Z,15.70
2019-04-21T18:46:22.660Z,15.40
2019-04-21T18:48:21.900Z,15.30
2019-04-21T18:51:02.515Z,15.20
2019-04-21T18:53:44.824Z,15.20
2019-04-21T18:56:05.697Z,14.90
2019-04-21T18:58:32.568Z,14.60
2019-04-21T19:01:18.181Z,14.40
2019-04-21T19:03:47.000Z,14.20
2019-04-21T19:06:18.805Z,14.20
2019-04-21T19:09:08.665Z,14.00
2019-04-21T19:11:28.656Z,13.80
2019-04-21T19:16:58.882Z,13.70
2019-04-21T19:21:55.435Z,13.50
2019-04-21T19:26:59.372Z,13.40
2019-04-21T19:31:54.882Z,13.20
2019-04-21T19:34:16.262Z,13.20
2019-04-21T19:36:48.809Z,13.20
2019-04-21T19:39:16.332Z,13.20
2019-04-21T19:41:56.088Z,13.30
2019-04-21T19:44:26.272Z,13.20
2019-04-21T19:47:02.985Z,13.00
2019-04-21T19:49:35.091Z,12.90
2019-04-21T19:51:53.287Z,12.80
2019-04-21T19:54:23.978Z,12.70
2019-04-21T19:56:44.918Z,12.70
2019-04-21T19:59:25.268Z,12.60
2019-04-21T20:01:46.765Z,12.40
2019-04-21T20:04:16.683Z,12.20
2019-04-21T20:06:58.426Z,12.10
2019-04-21T20:09:32.430Z,12.20
2019-04-21T20:11:58.107Z,12.10
2019-04-21T20:14:51.061Z,12.00
2019-04-21T20:17:00.612Z,11.90
2019-04-21T20:19:21.063Z,11.80
2019-04-21T20:21:51.174Z,11.70
2019-04-21T20:24:26.521Z,11.60
2019-04-21T20:27:01.288Z,11.50
2019-04-21T20:29:37.767Z,11.40
2019-04-21T20:32:17.863Z,11.30
2019-04-21T20:34:47.757Z,11.20
2019-04-21T20:37:17.806Z,11.20
2019-04-21T20:39:28.335Z,11.10
2019-04-21T20:42:09.680Z,11.10
2019-04-21T20:44:42.304Z,11.10
2019-04-21T20:47:07.832Z,11.10
2019-04-21T20:49:37.511Z,11.00
2019-04-21T20:52:18.901Z,10.90
2019-04-21T20:54:45.434Z,10.80
2019-04-21T20:57:18.045Z,10.70
2019-04-21T20:59:42.437Z,10.60
2019-04-21T21:02:19.061Z,10.50
2019-04-21T21:04:40.306Z,10.40
2019-04-21T21:07:28.234Z,10.30
2019-04-21T21:09:57.738Z,10.30
2019-04-21T21:14:45.977Z,10.40
2019-04-21T21:17:34.261Z,10.30
2019-04-21T21:19:57.912Z,10.30
2019-04-21T21:22:14.163Z,10.20
2019-04-21T21:24:50.545Z,10.20
2019-04-21T21:27:19.170Z,10.00
2019-04-21T21:29:49.906Z,9.90
2019-04-21T21:32:27.430Z,9.80
2019-04-21T21:34:57.207Z,9.70
2019-04-21T21:37:34.802Z,9.70
2019-04-21T21:40:04.023Z,9.70
2019-04-21T21:42:11.879Z,9.70
2019-04-21T21:44:50.464Z,9.60
2019-04-21T21:47:24.196Z,9.60
2019-04-21T21:49:59.727Z,9.50
2019-04-21T21:52:30.409Z,9.50
2019-04-21T21:54:43.618Z,9.50
2019-04-21T22:01:02.279Z,9.40
2019-04-21T22:03:34.245Z,9.20
2019-04-21T22:06:05.010Z,9.10
2019-04-21T22:08:32.419Z,9.10
2019-04-21T22:11:01.490Z,9.00
2019-04-21T22:13:37.540Z,9.10
2019-04-21T22:16:13.988Z,9.10
2019-04-21T22:19:09.536Z,9.00
2019-04-21T22:24:33.490Z,9.00
2019-04-21T22:26:47.276Z,9.00
2019-04-21T22:29:16.453Z,9.00
2019-04-21T22:31:46.889Z,8.90
2019-04-21T22:34:17.987Z,8.80
2019-04-21T22:36:56.288Z,8.60
2019-04-21T22:39:35.034Z,8.50
2019-04-21T22:42:00.527Z,8.40
2019-04-21T22:44:18.963Z,8.40
2019-04-21T22:46:58.412Z,8.30
2019-04-21T22:49:19.950Z,8.20
2019-04-21T22:51:51.807Z,8.20
2019-04-21T22:54:25.710Z,8.20
2019-04-21T22:56:57.140Z,8.10
2019-04-21T22:59:22.913Z,8.10
2019-04-21T23:01:52.622Z,8.10
2019-04-21T23:04:25.443Z,8.10
2019-04-21T23:06:56.680Z,8.00
2019-04-21T23:09:24.614Z,8.10
2019-04-21T23:11:56.643Z,8.00
2019-04-21T23:14:25.761Z,8.00
2019-04-21T23:17:14.835Z,8.10
2019-04-21T23:19:38.869Z,8.10
2019-04-21T23:22:14.726Z,7.90
2019-04-21T23:24:49.977Z,7.80
2019-04-21T23:27:11.645Z,7.80
2019-04-21T23:29:57.357Z,7.80
2019-04-21T23:32:14.941Z,7.70
2019-04-21T23:34:36.149Z,7.60
2019-04-21T23:37:07.958Z,7.70
2019-04-21T23:39:32.809Z,7.60
2019-04-21T23:42:02.664Z,7.60
2019-04-21T23:44:32.946Z,7.60
2019-04-21T23:47:06.618Z,7.50
2019-04-21T23:49:43.063Z,7.50
2019-04-21T23:52:07.093Z,7.50
2019-04-21T23:54:33.783Z,7.50
2019-04-21T23:57:11.284Z,7.40
2019-04-21T23:59:41.615Z,7.30
